Time;durP1;ratioP1;P1;durP2;ratioP2;P2;SDS_P1;SDS_P2;PMS_P1;PMS_P2;Temp;Humidity;BMP_temperature;BMP_pressure;BME280_temperature;BME280_humidity;BME280_pressure;Samples;Min_cycle;Max_cycle;Signal;HPM_P1;HPM_P2
2023/10/16 00:03:34;;;;;;;5.00;1.70;;;;;;;7.50;98.90;100492.61;223598;1267;140784;-85
2023/10/16 00:09:18;;;;;;;8.90;1.70;;;;;;;7.56;98.93;100497.21;224271;1263;138372;-83
2023/10/16 00:15:09;;;;;;;;;;;;;;;;;;;;;
2023/10/16 00:20:31;;;;;;;8.20;1.30;;;;;;;7.64;98.86;100505.57;223540;1263;139528;-85
2023/10/16 00:26:38;;;;;;;6.30;1.20;;;;;;;7.67;98.78;100507.92;224257;1263;138609;-83
2023/10/16 00:31:24;;;;;;;4.10;1.10;;;;;;;7.72;98.79;100507.86;223651;1263;139873;-83
2023/10/16 00:43:09;;;;;;;;;;;;;;;;;;;;;
2023/10/16 00:49:01;;;;;;;12.50;1.40;;;;;;;7.79;98.75;100508.90;224313;1263;138686;-83
2023/10/16 00:54:35;;;;;;;10.50;1.70;;;;;;;7.82;98.59;100516.56;223739;1263;139297;-86
2023/10/16 01:06:37;;;;;;;6.10;1.40;;;;;;;7.83;98.53;100524.72;224190;1263;138956;-85
2023/10/16 01:12:27;;;;;;;10.00;1.60;;;;;;;7.82;98.72;100531.13;223631;1263;139585;-83
2023/10/16 01:18:28;;;;;;;8.30;1.40;;;;;;;7.82;98.73;100542.08;224206;1263;138690;-83
2023/10/16 01:24:19;;;;;;;6.30;1.50;;;;;;;7.82;98.77;100545.11;223616;1263;139447;-84
2023/10/16 01:29:59;;;;;;;;;;;;;;;;;;;;;
2023/10/16 01:36:04;;;;;;;9.70;1.90;;;;;;;7.79;98.96;100555.70;224284;1263;138858;-85
2023/10/16 01:41:42;;;;;;;7.60;1.40;;;;;;;7.76;99.13;100562.43;223787;1263;139733;-84
2023/10/16 01:47:44;;;;;;;8.80;2.20;;;;;;;7.74;99.13;100563.08;224352;1267;139152;-85
2023/10/16 01:53:39;;;;;;;6.90;1.80;;;;;;;7.70;99.29;100567.77;223681;1263;139808;-83
2023/10/16 01:59:11;;;;;;;;;;;;;;;;;;;;;
2023/10/16 02:04:53;;;;;;;5.70;1.40;;;;;;;7.69;99.18;100582.06;224017;1263;247400;-85
2023/10/16 02:10:29;;;;;;;5.70;1.90;;;;;;;7.66;99.32;100578.94;223841;1263;139431;-84
2023/10/16 02:16:27;;;;;;;5.20;1.50;;;;;;;7.65;99.36;100579.15;224339;1263;107111;-86
2023/10/16 02:22:00;;;;;;;9.50;1.60;;;;;;;7.63;99.39;100577.14;223691;1264;140440;-84
2023/10/16 02:27:50;;;;;;;8.90;2.20;;;;;;;7.62;99.43;100578.51;224252;1263;138668;-84
2023/10/16 02:33:15;;;;;;;7.20;2.00;;;;;;;7.59;99.45;100585.33;223676;1263;140844;-85
2023/10/16 02:39:44;;;;;;;6.50;2.40;;;;;;;7.59;99.44;100581.73;224585;1264;137266;-84
2023/10/16 02:50:49;;;;;;;8.00;1.50;;;;;;;7.53;99.41;100604.14;223634;1263;139757;-83
2023/10/16 02:56:44;;;;;;;8.50;1.50;;;;;;;7.48;99.21;100607.75;224191;1267;138322;-84
2023/10/16 03:02:23;;;;;;;6.10;1.50;;;;;;;7.41;99.36;100607.48;223653;1266;140589;-85
2023/10/16 03:08:18;;;;;;;6.60;1.70;;;;;;;7.32;99.34;100613.11;224240;1263;138632;-85
2023/10/16 03:13:51;;;;;;;8.10;1.50;;;;;;;7.26;99.31;100614.48;223694;1267;139309;-83
2023/10/16 03:19:32;;;;;;;;;;;;;;;7.17;99.58;100616.29;224292;1263;139026;-84
2023/10/16 03:25:13;;;;;;;;;;;;;;;;;;;;;
2023/10/16 03:30:43;;;;;;;9.10;1.80;;;;;;;7.00;99.98;100621.27;224036;1263;139619;-84
2023/10/16 03:36:49;;;;;;;5.30;1.50;;;;;;;6.96;99.95;100624.69;224154;1264;139680;-84
2023/10/16 03:42:39;;;;;;;9.40;1.50;;;;;;;6.88;99.98;100628.68;223625;1267;139451;-85
2023/10/16 03:48:20;;;;;;;;;;;;;;;;;;;;;
2023/10/16 03:54:15;;;;;;;;;;;;;;;;;;;;;
2023/10/16 03:59:56;;;;;;;9.90;2.00;;;;;;;6.67;100.00;100647.77;223552;1262;140292;-84
2023/10/16 04:05:37;;;;;;;;;;;;;;;;;;;;;
2023/10/16 04:10:35;;;;;;;6.40;1.80;;;;;;;6.71;100.00;100636.92;223637;1265;139624;-85
2023/10/16 04:20:59;;;;;;;;;;;;;;;;;;;;;
2023/10/16 04:33:53;;;;;;;4.30;1.80;;;;;;;6.79;100.00;100629.42;223557;1264;139820;-84
2023/10/16 04:51:52;;;;;;;8.40;2.90;;;;;;;6.88;100.00;100643.84;223716;1264;140574;-85
2023/10/16 06:17:40;;;;;;;8.80;2.30;;;;;;;6.96;100.00;100672.54;224138;1264;138691;-82
2023/10/16 06:22:51;;;;;;;7.80;2.70;;;;;;;6.99;100.00;100679.75;223648;1263;139677;-83
2023/10/16 06:27:55;;;;;;;11.60;2.70;;;;;;;6.99;100.00;100687.33;224338;1264;105058;-83
2023/10/16 06:33:14;;;;;;;9.80;2.50;;;;;;;7.02;100.00;100686.71;223818;1264;141305;-82
2023/10/16 06:39:06;;;;;;;10.00;2.70;;;;;;;7.07;100.00;100689.20;223690;1264;139189;-83
2023/10/16 06:44:42;;;;;;;10.60;2.70;;;;;;;7.10;100.00;100692.11;223544;1264;139699;-81
2023/10/16 06:56:38;;;;;;;;;;;;;;;;;;;;;
2023/10/16 07:02:33;;;;;;;;;;;;;;;;;;;;;
2023/10/16 07:08:23;;;;;;;12.70;2.30;;;;;;;7.13;100.00;100704.63;224355;1264;138689;-83
2023/10/16 07:19:31;;;;;;;;;;;;;;;;;;;;;
2023/10/16 07:30:42;;;;;;;;;;;;;;;;;;;;;
2023/10/16 07:36:11;;;;;;;;;;;;;;;;;;;;;
2023/10/16 07:41:23;;;;;;;10.30;3.00;;;;;;;7.44;100.00;100706.06;223760;1263;140790;-82
2023/10/16 07:46:29;;;;;;;9.40;3.90;;;;;;;7.60;99.72;100714.73;224213;1263;95650;-84
2023/10/16 07:51:55;;;;;;;11.70;3.10;;;;;;;7.73;99.59;100710.30;223644;1264;141074;-82
2023/10/16 07:56:56;;;;;;;10.60;2.80;;;;;;;7.87;99.01;100722.73;224670;1263;138760;-82
2023/10/16 08:02:24;;;;;;;12.10;3.00;;;;;;;7.94;98.27;100723.00;223604;1263;139870;-81
2023/10/16 08:13:24;;;;;;;;;;;;;;;;;;;;;
2023/10/16 08:18:35;;;;;;;10.40;3.40;;;;;;;8.52;97.24;100733.89;224125;1263;139351;-82
2023/10/16 08:24:21;;;;;;;8.90;3.50;;;;;;;8.64;96.72;100730.19;223649;1263;140084;-83
2023/10/16 08:29:37;;;;;;;10.10;3.10;;;;;;;8.78;95.51;100737.34;223830;1263;140234;-82
2023/10/16 08:35:17;;;;;;;8.60;3.50;;;;;;;8.93;95.78;100742.38;224137;1263;224903;-82
2023/10/16 08:40:24;;;;;;;7.00;3.00;;;;;;;9.07;94.59;100738.93;223936;1263;139703;-83
2023/10/16 08:45:56;;;;;;;15.00;4.00;;;;;;;9.17;93.20;100745.03;224223;1263;138301;-83
2023/10/16 08:51:36;;;;;;;13.80;3.60;;;;;;;9.25;92.99;100749.91;224174;1263;138910;-82
2023/10/16 08:57:07;;;;;;;11.20;2.40;;;;;;;9.28;91.47;100746.00;224199;1263;138595;-82
2023/10/16 09:02:38;;;;;;;8.70;2.80;;;;;;;9.35;91.18;100745.82;223781;1263;140378;-82
2023/10/16 09:07:49;;;;;;;13.10;3.10;;;;;;;9.46;91.02;100747.38;224299;1263;139222;-82
2023/10/16 09:13:19;;;;;;;15.80;3.10;;;;;;;9.58;90.96;100749.05;223749;1263;139859;-82
2023/10/16 09:18:31;;;;;;;12.40;3.00;;;;;;;9.65;90.37;100751.14;224169;1263;138806;-82
2023/10/16 09:23:58;;;;;;;7.80;2.60;;;;;;;9.77;90.53;100753.34;223532;1263;140342;-82
2023/10/16 09:29:13;;;;;;;11.00;2.80;;;;;;;9.93;90.11;100761.27;224236;1263;139114;-82
2023/10/16 09:35:04;;;;;;;;;;;;;;;;;;;;;
2023/10/16 09:40:58;;;;;;;12.50;2.60;;;;;;;10.03;87.68;100757.45;223958;1263;140442;-81
2023/10/16 09:52:20;;;;;;;9.70;2.80;;;;;;;10.30;87.82;100768.66;222862;1270;139783;-81
2023/10/16 09:57:34;;;;;;;10.70;3.80;;;;;;;10.69;87.87;100769.79;224083;1263;138803;-82
2023/10/16 10:02:51;;;;;;;10.50;2.30;;;;;;;10.86;86.49;100773.59;223801;1263;140076;-82
2023/10/16 10:07:58;;;;;;;9.20;2.40;;;;;;;10.96;85.17;100776.35;224447;1263;139884;-81
2023/10/16 10:13:34;;;;;;;;;;;;;;;;;;;;;
2023/10/16 10:19:31;;;;;;;10.40;2.70;;;;;;;11.24;83.79;100784.55;224358;1263;139484;-81
2023/10/16 10:24:51;;;;;;;14.90;3.20;;;;;;;11.44;83.71;100776.79;224225;1263;365281;-81
2023/10/16 10:30:26;;;;;;;13.10;4.20;;;;;;;11.82;82.77;100774.70;223831;1263;141221;-82
2023/10/16 10:36:04;;;;;;;;;;;;;;;;;;;;;
2023/10/16 10:41:35;;;;;;;18.70;7.00;;;;;;;12.00;81.11;100764.41;224003;1263;140277;-81
2023/10/16 10:47:19;;;;;;;28.00;11.60;;;;;;;12.00;81.02;100764.80;224495;1264;112126;-82
2023/10/16 10:52:30;;;;;;;19.10;6.30;;;;;;;12.14;80.09;100770.31;223965;1263;140979;-81
2023/10/16 10:58:03;;;;;;;;;;;;;;;;;;;;;
2023/10/16 11:03:45;;;;;;;;;;;;;;;;;;;;;
2023/10/16 11:09:21;;;;;;;12.30;4.00;;;;;;;11.91;78.90;100761.00;224239;1263;139496;-81
2023/10/16 11:15:08;;;;;;;;;;;;;;;;;;;;;
2023/10/16 11:20:40;;;;;;;12.00;2.20;;;;;;;11.72;76.90;100758.83;223679;1262;140613;-82
2023/10/16 11:26:38;;;;;;;;;;;;;;;;;;;;;
2023/10/16 11:32:14;;;;;;;10.20;2.00;;;;;;;11.78;74.84;100762.13;223825;1263;140626;-83
2023/10/16 11:37:50;;;;;;;10.00;2.10;;;;;;;11.83;75.53;100756.98;224370;1263;140318;-82
2023/10/16 11:43:31;;;;;;;7.40;1.90;;;;;;;11.88;75.56;100755.93;223703;1265;139867;-82
2023/10/16 11:48:58;;;;;;;10.50;3.90;;;;;;;11.95;76.07;100758.05;224303;1267;139482;-83
2023/10/16 11:54:23;;;;;;;9.00;2.10;;;;;;;12.01;76.66;100761.59;223815;1263;140065;-81
2023/10/16 11:59:48;;;;;;;5.20;1.40;;;;;;;12.03;76.20;100759.00;223654;1263;140151;-83
2023/10/16 12:04:59;;;;;;;8.00;2.20;;;;;;;12.08;75.14;100763.48;224410;1263;105905;-83
2023/10/16 12:10:16;;;;;;;;;;;;;;;;;;;;;
2023/10/16 12:15:47;;;;;;;;;;;;;;;;;;;;;
2023/10/16 12:21:16;;;;;;;8.40;2.10;;;;;;;12.34;75.73;100771.14;223881;1263;126181;-83
2023/10/16 12:26:45;;;;;;;;;;;;;;;;;;;;;
2023/10/16 12:31:55;;;;;;;6.00;1.90;;;;;;;12.34;73.88;100773.27;223895;1263;140276;-82
2023/10/16 12:36:57;;;;;;;8.20;1.80;;;;;;;12.34;74.35;100774.22;224174;1263;139234;-83
2023/10/16 12:42:18;;;;;;;6.50;1.50;;;;;;;12.47;72.98;100779.07;223803;1263;139838;-83
2023/10/16 12:47:56;;;;;;;10.60;3.10;;;;;;;12.49;72.20;100776.41;224317;1265;139149;-81
2023/10/16 12:53:06;;;;;;;4.50;1.30;;;;;;;12.44;71.15;100780.61;223899;1263;141167;-82
2023/10/16 12:58:23;;;;;;;7.50;1.60;;;;;;;12.26;71.39;100782.91;224291;1265;108555;-83
2023/10/16 13:03:40;;;;;;;8.00;1.70;;;;;;;12.25;72.41;100780.98;223534;1264;140594;-82
2023/10/16 13:09:15;;;;;;;7.50;2.60;;;;;;;12.29;72.84;100780.80;224182;1263;139121;-82
2023/10/16 13:14:49;;;;;;;;;;;;;;;;;;;;;
2023/10/16 13:19:47;;;;;;;5.50;1.40;;;;;;;12.11;73.09;100781.48;223847;1263;140097;-82
2023/10/16 13:25:42;;;;;;;;;;;;;;;;;;;;;
2023/10/16 13:31:13;;;;;;;7.50;1.60;;;;;;;11.89;72.16;100769.65;223859;1263;140447;-81
2023/10/16 13:37:10;;;;;;;7.60;1.60;;;;;;;11.88;72.68;100774.14;224285;1263;138385;-83
2023/10/16 13:41:51;;;;;;;5.60;1.50;;;;;;;11.89;72.89;100777.05;223682;1263;139324;-82
2023/10/16 13:47:13;;;;;;;5.00;1.50;;;;;;;11.91;72.39;100784.64;224264;1265;96074;-81
2023/10/16 13:52:41;;;;;;;;;;;;;;;;;;;;;
2023/10/16 13:57:46;;;;;;;4.00;1.40;;;;;;;11.88;73.19;100782.33;224148;1265;136980;-82
2023/10/16 14:02:56;;;;;;;4.00;1.00;;;;;;;11.87;73.72;100787.90;223834;1264;139590;-79
2023/10/16 14:08:09;;;;;;;6.10;1.80;;;;;;;11.81;73.47;100780.27;224125;1267;137456;-81
2023/10/16 14:13:39;;;;;;;;;;;;;;;;;;;;;
2023/10/16 14:19:01;;;;;;;6.90;1.70;;;;;;;11.56;74.24;100783.02;224544;1263;138484;-80
2023/10/16 14:24:22;;;;;;;10.50;2.00;;;;;;;11.43;74.86;100789.05;223740;1263;139719;-81
2023/10/16 14:29:57;;;;;;;;;;;;;;;;;;;;;
2023/10/16 14:35:19;;;;;;;6.60;2.00;;;;;;;11.21;74.76;100786.02;224321;1263;104858;-82
2023/10/16 14:40:27;;;;;;;6.30;1.90;;;;;;;11.09;75.41;100786.92;223767;1263;139964;-83
2023/10/16 14:46:09;;;;;;;;;;;;;;;;;;;;;
2023/10/16 14:51:55;;;;;;;9.70;2.30;;;;;;;10.86;76.38;100789.42;223672;1267;140243;-81
2023/10/16 14:57:35;;;;;;;;;;;;;;;;;;;;;
2023/10/16 15:02:57;;;;;;;8.50;2.40;;;;;;;10.58;77.00;100793.76;223717;1263;140505;-82
2023/10/16 15:08:22;;;;;;;8.70;1.80;;;;;;;10.43;76.28;100795.14;224249;1266;138945;-81
2023/10/16 15:13:28;;;;;;;8.10;2.10;;;;;;;10.27;76.41;100798.63;223953;1266;140719;-82
2023/10/16 15:18:49;;;;;;;9.90;2.40;;;;;;;10.16;77.19;100803.14;224243;1266;138977;-82
2023/10/16 15:23:58;;;;;;;6.50;1.90;;;;;;;10.04;77.77;100813.36;223556;1263;141296;-83
2023/10/16 15:29:19;;;;;;;7.90;2.30;;;;;;;9.94;78.40;100822.81;224236;1263;105990;-82
2023/10/16 15:34:39;;;;;;;;;;;;;;;;;;;;;
2023/10/16 15:39:51;;;;;;;10.70;3.20;;;;;;;9.75;79.92;100834.19;223573;1266;139459;-81
2023/10/16 15:45:25;;;;;;;22.10;8.70;;;;;;;9.63;80.46;100842.72;224126;1265;138576;-82
2023/10/16 15:50:49;;;;;;;;;;;;;;;;;;;;;
2023/10/16 15:56:31;;;;;;;13.40;5.00;;;;;;;9.39;81.83;100854.61;224107;1266;138697;-81
2023/10/16 16:02:32;;;;;;;13.60;5.20;;;;;;;9.21;82.21;100865.17;223558;1263;139817;-83
2023/10/16 16:13:46;;;;;;;;;;;;;;;;;;;;;
2023/10/16 16:19:32;;;;;;;9.10;3.70;;;;;;;8.89;84.61;100881.83;224118;1266;138632;-82
2023/10/16 16:25:00;;;;;;;13.90;5.50;;;;;;;8.81;85.09;100880.73;224211;1264;138706;-82
2023/10/16 16:30:24;;;;;;;;;;;;;;;;;;;;;
2023/10/16 16:36:03;;;;;;;;;;;;;;;;;;;;;
2023/10/16 16:41:34;;;;;;;21.10;6.20;;;;;;;8.74;86.17;100887.70;223728;1264;139840;-82
2023/10/16 16:47:14;;;;;;;13.90;5.50;;;;;;;8.69;86.58;100895.64;224352;1263;108248;-83
2023/10/16 16:52:32;;;;;;;;;;;;;;;;;;;;;
2023/10/16 16:58:13;;;;;;;;;;;;;;;;;;;;;
2023/10/16 17:04:04;;;;;;;30.20;16.30;;;;;;;8.50;87.42;100913.95;223971;1267;139378;-83
2023/10/16 17:09:40;;;;;;;20.40;8.60;;;;;;;8.35;87.91;100917.05;224244;1267;138628;-83
2023/10/16 17:15:06;;;;;;;;;;;;;;;;;;;;;
2023/10/16 17:20:36;;;;;;;20.70;9.90;;;;;;;8.09;88.53;100913.85;223509;1267;141152;-84
2023/10/16 17:26:01;;;;;;;;;;;;;;;;;;;;;
2023/10/16 17:31:05;;;;;;;30.40;13.10;;;;;;;7.81;89.90;100924.55;223728;1263;139984;-84
2023/10/16 17:36:28;;;;;;;;;;;;;;;;;;;;;
2023/10/16 17:41:42;;;;;;;32.00;15.10;;;;;;;7.55;90.36;100928.45;223777;1263;139971;-82
2023/10/16 17:46:46;;;;;;;31.30;12.80;;;;;;;7.43;90.91;100934.25;224247;1263;111151;-83
2023/10/16 17:52:07;;;;;;;23.00;10.10;;;;;;;7.29;90.93;100934.13;223655;1263;140239;-83
2023/10/16 17:57:41;;;;;;;;;;;;;;;;;;;;;
2023/10/16 18:02:47;;;;;;;21.40;10.40;;;;;;;7.02;91.98;100936.13;223681;1263;140537;-82
2023/10/16 18:07:47;;;;;;;25.20;11.90;;;;;;;6.91;92.47;100939.48;224011;1267;139451;-83
2023/10/16 18:12:55;;;;;;;26.30;13.00;;;;;;;6.74;92.62;100937.81;223584;1263;139933;-82
2023/10/16 18:18:43;;;;;;;28.70;12.30;;;;;;;6.59;92.98;100944.73;224237;1266;139449;-83
2023/10/16 18:24:04;;;;;;;27.20;12.00;;;;;;;6.44;93.43;100943.33;223660;1265;140157;-82
2023/10/16 18:29:49;;;;;;;23.50;10.90;;;;;;;6.33;93.76;100945.09;224334;1263;107798;-82
2023/10/16 18:35:33;;;;;;;22.40;11.20;;;;;;;6.19;94.06;100954.89;224292;1263;107492;-83
2023/10/16 18:41:19;;;;;;;26.60;9.90;;;;;;;6.08;94.47;100958.08;223727;1263;143088;-82
2023/10/16 18:47:05;;;;;;;23.40;10.10;;;;;;;5.96;94.56;100959.20;224297;1263;139250;-82
2023/10/16 18:52:26;;;;;;;21.40;10.30;;;;;;;5.83;94.78;100965.11;223720;1266;140105;-83
2023/10/16 18:57:35;;;;;;;25.80;11.30;;;;;;;5.74;95.40;100965.98;224101;1266;139260;-83
2023/10/16 19:03:17;;;;;;;23.20;10.90;;;;;;;5.59;95.32;100967.47;223556;1268;140225;-83
2023/10/16 19:08:26;;;;;;;24.50;11.00;;;;;;;5.47;95.70;100971.39;224241;1263;139969;-84
2023/10/16 19:14:00;;;;;;;;;;;;;;;;;;;;;
2023/10/16 19:19:34;;;;;;;26.20;12.30;;;;;;;5.29;96.55;100982.04;224237;1266;139949;-84
2023/10/16 19:25:07;;;;;;;;;;;;;;;;;;;;;
2023/10/16 19:30:28;;;;;;;27.10;14.60;;;;;;;5.05;97.03;100994.23;223517;1263;140176;-83
2023/10/16 19:36:08;;;;;;;;;;;;;;;;;;;;;
2023/10/16 19:41:32;;;;;;;;;;;;;;;;;;;;;
2023/10/16 19:47:11;;;;;;;21.80;11.00;;;;;;;4.71;97.31;101003.55;224028;1265;139391;-82
2023/10/16 19:53:19;;;;;;;18.10;9.70;;;;;;;4.63;97.48;101004.83;223658;1268;140030;-82
2023/10/16 19:58:56;;;;;;;;;;;;;;;;;;;;;
2023/10/16 20:04:41;;;;;;;17.40;8.60;;;;;;;4.42;98.22;101014.27;223640;1263;140209;-83
2023/10/16 20:10:19;;;;;;;23.60;11.60;;;;;;;4.27;98.50;101018.02;223705;1263;140203;-84
2023/10/16 20:15:56;;;;;;;;;;;;;;;;;;;;;
2023/10/16 20:21:45;;;;;;;34.60;15.10;;;;;;;4.09;99.29;101022.55;223712;1263;140260;-83
2023/10/16 20:27:36;;;;;;;30.40;14.70;;;;;;;4.06;99.96;101028.00;224185;1266;138677;-83
2023/10/16 20:34:05;;;;;;;30.70;14.50;;;;;;;3.98;99.72;101032.92;223875;1263;139867;-84
2023/10/16 20:39:32;;;;;;;25.40;13.20;;;;;;;3.89;99.97;101036.41;220153;1264;138882;-84
2023/10/16 20:45:16;;;;;;;;;;;;;;;;;;;;;
2023/10/16 20:50:40;;;;;;;23.90;11.20;;;;;;;3.73;100.00;101045.50;223677;1264;140124;-84
2023/10/16 20:56:10;;;;;;;21.70;10.80;;;;;;;3.67;100.00;101042.80;224263;1266;139425;-82
2023/10/16 21:07:26;;;;;;;23.90;10.60;;;;;;;3.51;100.00;101051.73;224285;1262;106039;-93
2023/10/16 21:12:36;;;;;;;24.50;12.70;;;;;;;3.44;100.00;101053.95;223185;1267;141144;-88
2023/10/16 21:17:36;;;;;;;24.20;11.50;;;;;;;3.40;100.00;101056.49;224146;1268;108230;-88
2023/10/16 21:22:37;;;;;;;24.00;12.60;;;;;;;3.35;100.00;101053.05;223473;1264;140091;-85
2023/10/16 21:27:38;;;;;;;22.10;12.20;;;;;;;3.29;100.00;101056.10;224110;1266;138934;-86
2023/10/16 21:32:39;;;;;;;26.20;13.70;;;;;;;3.24;100.00;101060.64;223435;1264;139775;-86
2023/10/16 21:37:41;;;;;;;42.30;19.70;;;;;;;3.18;100.00;101061.67;224134;1267;139327;-87
2023/10/16 21:42:42;;;;;;;64.20;23.90;;;;;;;3.13;100.00;101060.48;223199;1264;140613;-87
2023/10/16 21:47:44;;;;;;;41.70;18.00;;;;;;;3.06;100.00;101061.84;223941;1265;95924;-87
2023/10/16 21:52:45;;;;;;;49.80;19.60;;;;;;;2.97;100.00;101062.55;223366;1266;140199;-87
2023/10/16 21:57:46;;;;;;;41.90;19.70;;;;;;;2.90;100.00;101055.73;223959;1266;140740;-86
2023/10/16 22:02:46;;;;;;;44.00;19.90;;;;;;;2.86;100.00;101061.27;223509;1264;140347;-87
2023/10/16 22:07:50;;;;;;;42.20;19.80;;;;;;;2.83;100.00;101059.81;224009;1266;139856;-87
2023/10/16 22:12:51;;;;;;;45.30;19.50;;;;;;;2.80;100.00;101064.78;223521;1266;140008;-87
2023/10/16 22:17:51;;;;;;;39.60;18.90;;;;;;;2.74;100.00;101072.60;224062;1264;139666;-87
2023/10/16 22:22:52;;;;;;;41.20;20.10;;;;;;;2.63;100.00;101073.54;223609;1268;140165;-85
2023/10/16 22:27:52;;;;;;;55.80;21.80;;;;;;;2.59;100.00;101073.67;224112;1266;140014;-82
2023/10/16 22:32:52;;;;;;;41.80;19.20;;;;;;;2.56;100.00;101074.42;223554;1264;140575;-83
2023/10/16 22:37:53;;;;;;;48.60;21.10;;;;;;;2.48;100.00;101072.74;224114;1266;139045;-83
2023/10/16 22:42:53;;;;;;;47.20;21.60;;;;;;;2.43;100.00;101078.30;223504;1266;140843;-82
2023/10/16 22:47:55;;;;;;;39.90;18.90;;;;;;;2.39;100.00;101080.48;224038;1264;139994;-82
2023/10/16 22:52:55;;;;;;;39.60;18.60;;;;;;;2.35;100.00;101085.50;223599;1266;140403;-82
2023/10/16 22:57:58;;;;;;;48.70;20.70;;;;;;;2.33;100.00;101089.78;224060;1264;140383;-82
2023/10/16 23:02:58;;;;;;;52.60;24.30;;;;;;;2.26;100.00;101090.59;223486;1266;139837;-82
2023/10/16 23:07:59;;;;;;;52.60;24.00;;;;;;;2.20;100.00;101090.17;224013;1264;139609;-82
2023/10/16 23:13:00;;;;;;;46.90;23.20;;;;;;;2.18;100.00;101088.50;223601;1266;140856;-82
2023/10/16 23:18:02;;;;;;;45.30;20.30;;;;;;;2.14;100.00;101090.25;224137;1266;139397;-82
2023/10/16 23:23:03;;;;;;;53.20;22.60;;;;;;;2.08;100.00;101088.73;223523;1264;140106;-82
2023/10/16 23:28:04;;;;;;;49.80;22.70;;;;;;;2.07;100.00;101088.04;224115;1265;138949;-81
2023/10/16 23:33:09;;;;;;;42.50;21.80;;;;;;;2.03;100.00;101084.81;223549;1264;142467;-82
2023/10/16 23:38:12;;;;;;;45.10;21.60;;;;;;;2.00;100.00;101085.26;224086;1264;139444;-82
2023/10/16 23:43:15;;;;;;;39.00;20.10;;;;;;;1.97;100.00;101086.40;223613;1264;140161;-82
2023/10/16 23:48:18;;;;;;;36.60;18.00;;;;;;;1.96;100.00;101078.83;223925;1264;139064;-81
2023/10/16 23:53:33;;;;;;;34.90;18.30;;;;;;;1.93;100.00;101075.80;223746;1266;140112;-81
2023/10/16 23:58:33;;;;;;;47.20;20.60;;;;;;;1.88;100.00;101074.21;224094;1266;140075;-81
